createdAt,value
2023-05-10T00:00:55.724Z,100818.31
2023-05-10T00:03:24.593Z,100815.44
2023-05-10T00:05:52.605Z,100807.97
2023-05-10T00:08:19.529Z,100805.16
2023-05-10T00:10:51.293Z,100812.09
2023-05-10T00:13:19.009Z,100806.50
2023-05-10T00:15:53.568Z,100804.63
2023-05-10T00:18:28.714Z,100800.38
2023-05-10T00:20:55.880Z,100795.31
2023-05-10T00:23:22.884Z,100789.13
2023-05-10T00:25:56.155Z,100785.53
2023-05-10T00:28:23.270Z,100786.88
2023-05-10T00:30:55.651Z,100785.31
2023-05-10T00:33:23.373Z,100778.28
2023-05-10T00:35:53.029Z,100780.19
2023-05-10T00:38:27.308Z,100779.78
2023-05-10T00:40:54.522Z,100771.34
2023-05-10T00:43:21.730Z,100776.19
2023-05-10T00:45:49.077Z,100767.44
2023-05-10T00:48:17.608Z,100767.13
2023-05-10T00:50:55.791Z,100768.03
2023-05-10T00:53:23.238Z,100762.13
2023-05-10T00:55:54.264Z,100760.94
2023-05-10T00:58:21.357Z,100759.72
2023-05-10T01:00:49.706Z,100751.94
2023-05-10T01:03:27.046Z,100749.19
2023-05-10T01:06:01.468Z,100758.53
2023-05-10T01:08:30.150Z,100748.75
2023-05-10T01:11:02.810Z,100745.00
2023-05-10T01:13:44.606Z,100754.72
2023-05-10T01:16:19.671Z,100749.06
2023-05-10T01:18:49.869Z,100749.63
2023-05-10T01:21:33.817Z,100753.19
2023-05-10T01:24:09.726Z,100752.34
2023-05-10T01:26:45.810Z,100750.88
2023-05-10T01:29:32.785Z,100750.16
2023-05-10T01:32:34.976Z,100741.19
2023-05-10T01:35:10.215Z,100740.09
2023-05-10T01:38:08.289Z,100742.53
2023-05-10T01:40:58.263Z,100750.28
2023-05-10T01:43:35.296Z,100742.59
2023-05-10T01:46:27.428Z,100741.19
2023-05-10T01:49:03.650Z,100744.78
2023-05-10T01:51:46.099Z,100737.91
2023-05-10T01:54:25.490Z,100744.69
2023-05-10T02:00:21.284Z,100743.41
2023-05-10T02:02:50.962Z,100745.88
2023-05-10T02:05:21.414Z,100739.13
2023-05-10T02:07:52.586Z,100742.53
2023-05-10T02:10:21.122Z,100747.78
2023-05-10T02:12:52.142Z,100757.78
2023-05-10T02:15:28.239Z,100743.75
2023-05-10T02:18:05.525Z,100751.91
2023-05-10T02:20:34.121Z,100750.09
2023-05-10T02:23:07.458Z,100752.16
2023-05-10T02:25:43.054Z,100751.13
2023-05-10T02:28:14.797Z,100753.59
2023-05-10T02:30:42.628Z,100753.19
2023-05-10T02:33:13.110Z,100756.63
2023-05-10T02:35:40.841Z,100756.09
2023-05-10T02:38:09.083Z,100747.19
2023-05-10T02:40:38.448Z,100750.44
2023-05-10T02:43:07.753Z,100752.69
2023-05-10T02:45:37.031Z,100754.56
2023-05-10T02:48:04.424Z,100748.91
2023-05-10T02:50:34.841Z,100746.25
2023-05-10T02:53:11.069Z,100747.69
2023-05-10T02:55:41.792Z,100744.50
2023-05-10T02:58:08.958Z,100745.53
2023-05-10T03:00:37.573Z,100742.34
2023-05-10T03:03:04.665Z,100747.34
2023-05-10T03:05:34.064Z,100740.75
2023-05-10T03:08:04.872Z,100744.59
2023-05-10T03:10:33.817Z,100743.31
2023-05-10T03:13:22.662Z,100739.97
2023-05-10T03:16:37.155Z,100744.00
2023-05-10T03:19:21.900Z,100733.88
2023-05-10T03:21:55.268Z,100731.56
2023-05-10T03:24:24.675Z,100729.13
2023-05-10T03:26:54.988Z,100738.34
2023-05-10T03:29:23.645Z,100732.41
2023-05-10T03:31:51.321Z,100733.44
2023-05-10T03:34:18.734Z,100741.53
2023-05-10T03:36:46.124Z,100732.97
2023-05-10T03:39:13.297Z,100725.13
2023-05-10T03:41:40.842Z,100732.38
2023-05-10T03:44:16.906Z,100732.03
2023-05-10T03:46:44.280Z,100736.34
2023-05-10T03:49:11.381Z,100741.00
2023-05-10T03:51:38.515Z,100739.34
2023-05-10T03:54:05.564Z,100731.88
2023-05-10T03:56:34.028Z,100732.28
2023-05-10T03:59:01.019Z,100734.19
2023-05-10T04:01:27.964Z,100737.38
2023-05-10T04:04:00.623Z,100732.22
2023-05-10T04:06:31.695Z,100730.34
2023-05-10T04:09:01.620Z,100735.84
2023-05-10T04:11:29.352Z,100730.78
2023-05-10T04:14:07.191Z,100728.09
2023-05-10T04:16:39.486Z,100737.84
2023-05-10T04:19:09.831Z,100729.66
2023-05-10T04:21:40.431Z,100729.66
2023-05-10T04:24:16.437Z,100731.63
2023-05-10T04:26:43.456Z,100727.34
2023-05-10T04:29:10.355Z,100724.47
2023-05-10T04:31:46.429Z,100730.06
2023-05-10T04:34:13.427Z,100726.22
2023-05-10T04:36:40.386Z,100723.94
2023-05-10T04:39:07.289Z,100729.56
2023-05-10T04:41:34.240Z,100726.41
2023-05-10T04:44:04.205Z,100727.59
2023-05-10T04:46:31.130Z,100722.97
2023-05-10T04:49:01.745Z,100730.56
2023-05-10T04:51:28.784Z,100732.44
2023-05-10T04:54:05.984Z,100721.47
2023-05-10T04:56:34.805Z,100730.97
2023-05-10T04:59:04.844Z,100727.50
2023-05-10T05:01:34.852Z,100727.34
2023-05-10T05:04:02.042Z,100721.84
2023-05-10T05:06:29.187Z,100728.19
2023-05-10T05:08:56.205Z,100732.56
2023-05-10T05:11:27.264Z,100737.19
2023-05-10T05:13:54.492Z,100734.91
2023-05-10T05:16:21.472Z,100730.47
2023-05-10T05:18:51.165Z,100728.56
2023-05-10T05:21:18.750Z,100730.72
2023-05-10T05:23:47.214Z,100732.13
2023-05-10T05:26:17.297Z,100719.59
2023-05-10T05:28:44.367Z,100724.69
2023-05-10T05:31:17.963Z,100722.06
2023-05-10T05:33:44.911Z,100722.13
2023-05-10T05:36:11.916Z,100723.31
2023-05-10T05:38:38.837Z,100716.84
2023-05-10T05:41:06.252Z,100720.66
2023-05-10T05:43:33.169Z,100722.19
2023-05-10T05:46:00.629Z,100724.91
2023-05-10T05:48:30.408Z,100723.72
2023-05-10T05:51:00.541Z,100721.81
2023-05-10T05:53:27.569Z,100721.13
2023-05-10T05:55:55.526Z,100719.53
2023-05-10T05:58:23.582Z,100723.81
2023-05-10T06:00:54.505Z,100719.59
2023-05-10T06:03:24.723Z,100715.03
2023-05-10T06:05:52.564Z,100726.16
2023-05-10T06:08:19.549Z,100725.31
2023-05-10T06:10:48.188Z,100726.22
2023-05-10T06:13:17.539Z,100723.22
2023-05-10T06:15:44.463Z,100729.59
2023-05-10T06:18:11.483Z,100729.16
2023-05-10T06:20:52.160Z,100731.59
2023-05-10T06:23:24.638Z,100718.09
2023-05-10T06:25:53.463Z,100727.47
2023-05-10T06:28:21.401Z,100717.44
2023-05-10T06:30:50.164Z,100725.53
2023-05-10T06:33:18.968Z,100727.56
2023-05-10T06:35:50.382Z,100725.13
2023-05-10T06:38:22.846Z,100727.91
2023-05-10T06:40:54.299Z,100719.84
2023-05-10T06:43:21.294Z,100719.16
2023-05-10T06:45:52.292Z,100714.16
2023-05-10T06:48:19.284Z,100718.50
2023-05-10T06:50:56.521Z,100719.47
2023-05-10T06:53:40.368Z,100711.63
2023-05-10T06:56:10.261Z,100713.31
2023-05-10T06:58:44.810Z,100707.31
2023-05-10T07:01:11.992Z,100714.94
2023-05-10T07:03:40.095Z,100714.16
2023-05-10T07:06:29.470Z,100717.94
2023-05-10T07:09:02.239Z,100722.59
2023-05-10T07:11:35.120Z,100707.31
2023-05-10T07:14:04.259Z,100715.72
2023-05-10T07:16:31.276Z,100716.47
2023-05-10T07:18:58.633Z,100718.28
2023-05-10T07:21:25.581Z,100713.97
2023-05-10T07:23:53.006Z,100716.66
2023-05-10T07:26:20.707Z,100711.88
2023-05-10T07:28:48.299Z,100715.63
2023-05-10T07:31:15.267Z,100716.22
2023-05-10T07:33:43.451Z,100720.94
2023-05-10T07:36:10.451Z,100723.28
2023-05-10T07:38:40.234Z,100723.25
2023-05-10T07:41:11.125Z,100722.94
2023-05-10T07:43:38.290Z,100718.44
2023-05-10T07:46:05.452Z,100714.88
2023-05-10T07:48:32.709Z,100720.94
2023-05-10T07:51:01.088Z,100712.56
2023-05-10T07:53:31.429Z,100707.31
2023-05-10T07:56:03.242Z,100712.28
2023-05-10T07:58:33.752Z,100715.38
2023-05-10T08:01:03.801Z,100715.28
2023-05-10T08:03:34.308Z,100718.97
2023-05-10T08:06:01.454Z,100719.63
2023-05-10T08:08:28.773Z,100714.44
2023-05-10T08:10:55.904Z,100719.31
2023-05-10T08:13:24.876Z,100716.97
2023-05-10T08:15:54.393Z,100712.72
2023-05-10T08:18:24.961Z,100710.31
2023-05-10T08:20:53.681Z,100717.25
2023-05-10T08:23:35.691Z,100715.78
2023-05-10T08:26:06.621Z,100715.28
2023-05-10T08:28:36.571Z,100727.56
2023-05-10T08:31:11.547Z,100727.91
2023-05-10T08:33:38.650Z,100729.50
2023-05-10T08:36:05.725Z,100725.13
2023-05-10T08:38:32.757Z,100732.75
2023-05-10T08:41:07.582Z,100727.25
2023-05-10T08:43:37.223Z,100741.09
2023-05-10T08:46:06.738Z,100731.56
2023-05-10T08:48:35.730Z,100731.78
2023-05-10T08:51:06.265Z,100733.94
2023-05-10T08:53:37.882Z,100734.75
2023-05-10T08:56:14.658Z,100736.59
2023-05-10T08:58:41.968Z,100745.63
2023-05-10T09:01:10.117Z,100741.78
2023-05-10T09:03:40.258Z,100735.09
2023-05-10T09:06:15.746Z,100737.72
2023-05-10T09:08:44.355Z,100736.78
2023-05-10T09:11:15.518Z,100735.28
2023-05-10T09:13:45.736Z,100736.78
2023-05-10T09:16:21.933Z,100740.38
2023-05-10T09:18:54.165Z,100737.31
2023-05-10T09:21:28.307Z,100740.97
2023-05-10T09:23:56.998Z,100740.94
2023-05-10T09:26:25.722Z,100737.03
2023-05-10T09:28:54.029Z,100729.38
2023-05-10T09:31:21.582Z,100731.19
2023-05-10T09:33:51.011Z,100735.28
2023-05-10T09:36:18.252Z,100730.81
2023-05-10T09:38:54.161Z,100734.44
2023-05-10T09:41:28.874Z,100736.06
2023-05-10T09:44:02.176Z,100740.28
2023-05-10T09:46:29.233Z,100736.13
2023-05-10T09:48:56.256Z,100741.16
2023-05-10T09:51:36.110Z,100740.66
2023-05-10T09:54:15.237Z,100730.63
2023-05-10T09:56:45.871Z,100740.97
2023-05-10T09:59:13.880Z,100740.25
2023-05-10T10:01:41.976Z,100750.09
2023-05-10T10:04:12.503Z,100741.72
2023-05-10T10:06:41.927Z,100735.19
2023-05-10T10:09:11.391Z,100733.81
2023-05-10T10:11:39.822Z,100736.81
2023-05-10T10:14:07.199Z,100738.72
2023-05-10T10:16:37.600Z,100740.19
2023-05-10T10:19:11.858Z,100740.56
2023-05-10T10:21:41.761Z,100734.91
2023-05-10T10:24:08.864Z,100736.38
2023-05-10T10:26:43.332Z,100733.38
2023-05-10T10:29:36.463Z,100733.41
2023-05-10T10:32:28.116Z,100732.19
2023-05-10T10:35:00.561Z,100736.78
2023-05-10T10:37:46.637Z,100739.44
2023-05-10T10:40:46.225Z,100737.63
2023-05-10T10:43:30.738Z,100735.53
2023-05-10T10:46:18.698Z,100737.94
2023-05-10T10:49:11.735Z,100745.22
2023-05-10T10:51:42.135Z,100737.56
2023-05-10T10:54:16.899Z,100728.66
2023-05-10T10:56:45.978Z,100727.84
2023-05-10T10:59:13.306Z,100739.00
2023-05-10T11:01:53.400Z,100733.75
2023-05-10T11:04:23.375Z,100748.28
2023-05-10T11:06:53.292Z,100734.50
2023-05-10T11:09:23.398Z,100738.75
2023-05-10T11:11:56.660Z,100750.88
2023-05-10T11:14:26.666Z,100753.91
2023-05-10T11:16:56.740Z,100750.16
2023-05-10T11:19:29.224Z,100752.06
2023-05-10T11:22:05.350Z,100762.66
2023-05-10T11:24:32.866Z,100760.38
2023-05-10T11:27:00.837Z,100767.31
2023-05-10T11:29:28.046Z,100761.13
2023-05-10T11:31:59.161Z,100769.44
2023-05-10T11:34:27.853Z,100773.91
2023-05-10T11:36:56.470Z,100772.53
2023-05-10T11:39:30.760Z,100774.81
2023-05-10T11:41:58.869Z,100778.34
2023-05-10T11:44:35.321Z,100775.69
2023-05-10T11:47:03.418Z,100779.03
2023-05-10T11:49:30.882Z,100774.59
2023-05-10T11:52:09.226Z,100769.63
2023-05-10T11:54:36.831Z,100769.88
2023-05-10T11:57:04.795Z,100777.38
2023-05-10T11:59:31.927Z,100783.00
2023-05-10T12:01:59.289Z,100783.19
2023-05-10T12:04:31.807Z,100777.63
2023-05-10T12:06:59.064Z,100777.69
2023-05-10T12:09:39.588Z,100773.63
2023-05-10T12:12:10.041Z,100772.53
2023-05-10T12:14:37.075Z,100781.00
2023-05-10T12:17:04.196Z,100776.94
2023-05-10T12:19:42.226Z,100777.09
2023-05-10T12:22:10.135Z,100779.38
2023-05-10T12:24:41.895Z,100779.16
2023-05-10T12:27:12.550Z,100771.13
2023-05-10T12:29:45.730Z,100772.66
2023-05-10T12:32:13.038Z,100770.16
2023-05-10T12:34:40.443Z,100774.38
2023-05-10T12:37:07.492Z,100770.50
2023-05-10T12:39:50.521Z,100775.47
2023-05-10T12:42:22.392Z,100773.41
2023-05-10T12:45:00.554Z,100768.56
2023-05-10T12:47:32.090Z,100778.84
2023-05-10T12:50:04.163Z,100775.78
2023-05-10T12:52:33.557Z,100774.41
2023-05-10T12:55:01.643Z,100777.91
2023-05-10T12:57:30.975Z,100778.53
2023-05-10T13:00:01.186Z,100783.25
2023-05-10T13:02:30.832Z,100775.41
2023-05-10T13:04:57.812Z,100772.47
2023-05-10T13:07:24.959Z,100769.19
2023-05-10T13:09:53.507Z,100774.41
2023-05-10T13:12:21.617Z,100764.47
2023-05-10T13:14:51.061Z,100768.34
2023-05-10T13:17:18.312Z,100763.53
2023-05-10T13:19:47.939Z,100765.38
2023-05-10T13:22:17.202Z,100763.84
2023-05-10T13:24:47.937Z,100764.25
2023-05-10T13:27:21.153Z,100768.09
2023-05-10T13:29:49.128Z,100761.00
2023-05-10T13:32:16.336Z,100756.19
2023-05-10T13:34:43.414Z,100751.78
2023-05-10T13:37:15.289Z,100748.47
2023-05-10T13:39:44.114Z,100745.03
2023-05-10T13:42:11.267Z,100746.38
2023-05-10T13:44:43.335Z,100746.94
2023-05-10T13:47:13.433Z,100740.19
2023-05-10T13:49:40.772Z,100738.03
2023-05-10T13:52:10.183Z,100734.19
2023-05-10T13:54:43.116Z,100726.91
2023-05-10T13:57:20.514Z,100735.63
2023-05-10T13:59:47.930Z,100732.84
2023-05-10T14:02:14.991Z,100723.03
2023-05-10T14:04:44.168Z,100711.81
2023-05-10T14:09:53.841Z,100713.44
2023-05-10T14:12:21.272Z,100723.22
2023-05-10T14:14:49.586Z,100719.94
2023-05-10T14:17:22.675Z,100713.72
2023-05-10T14:19:50.051Z,100714.34
2023-05-10T14:22:17.162Z,100712.66
2023-05-10T14:24:48.314Z,100716.22
2023-05-10T14:27:20.293Z,100709.28
2023-05-10T14:29:48.661Z,100709.47
2023-05-10T14:32:19.725Z,100703.44
2023-05-10T14:34:46.835Z,100705.13
2023-05-10T14:37:16.460Z,100697.53
2023-05-10T14:39:44.772Z,100712.41
2023-05-10T14:42:13.106Z,100704.53
2023-05-10T14:44:42.138Z,100703.75
2023-05-10T14:47:12.344Z,100703.28
2023-05-10T14:49:42.542Z,100705.63
2023-05-10T14:52:11.375Z,100695.28
2023-05-10T14:54:41.213Z,100697.66
2023-05-10T14:57:09.370Z,100699.53
2023-05-10T14:59:36.398Z,100695.31
2023-05-10T15:02:09.709Z,100694.50
2023-05-10T15:04:39.154Z,100697.66
2023-05-10T15:07:07.079Z,100691.91
2023-05-10T15:09:36.963Z,100698.75
2023-05-10T15:12:03.941Z,100704.00
2023-05-10T15:14:32.322Z,100702.84
2023-05-10T15:17:04.970Z,100701.22
2023-05-10T15:19:31.944Z,100708.84
2023-05-10T15:22:04.049Z,100712.94
2023-05-10T15:24:32.175Z,100709.78
2023-05-10T15:26:59.243Z,100702.13
2023-05-10T15:29:26.131Z,100715.94
2023-05-10T15:31:53.600Z,100711.25
2023-05-10T15:34:22.517Z,100699.31
2023-05-10T15:36:49.696Z,100698.44
2023-05-10T15:39:16.617Z,100698.72
2023-05-10T15:41:43.601Z,100706.50
2023-05-10T15:44:10.511Z,100704.44
2023-05-10T15:46:41.637Z,100698.38
2023-05-10T15:49:08.691Z,100706.09
2023-05-10T15:51:36.782Z,100710.63
2023-05-10T15:54:07.702Z,100709.28
2023-05-10T15:56:45.582Z,100705.31
2023-05-10T15:59:13.635Z,100701.00
2023-05-10T16:01:45.197Z,100690.22
2023-05-10T16:04:18.729Z,100706.31
2023-05-10T16:06:49.631Z,100694.53
2023-05-10T16:09:16.637Z,100695.56
2023-05-10T16:11:44.545Z,100690.41
2023-05-10T16:14:13.347Z,100692.59
2023-05-10T16:16:44.513Z,100691.09
2023-05-10T16:19:16.417Z,100689.72
2023-05-10T16:21:44.977Z,100695.50
2023-05-10T16:24:12.252Z,100693.06
2023-05-10T16:26:41.316Z,100695.59
2023-05-10T16:29:09.203Z,100693.63
2023-05-10T16:31:36.406Z,100688.50
2023-05-10T16:34:05.306Z,100691.03
2023-05-10T16:36:34.444Z,100685.78
2023-05-10T16:39:03.615Z,100686.25
2023-05-10T16:41:37.132Z,100681.81
2023-05-10T16:44:20.149Z,100680.00
2023-05-10T16:46:47.716Z,100678.88
2023-05-10T16:49:17.233Z,100681.41
2023-05-10T16:51:44.268Z,100675.06
2023-05-10T16:54:14.152Z,100682.72
2023-05-10T16:56:43.288Z,100683.72
2023-05-10T16:59:12.746Z,100683.31
2023-05-10T17:01:44.497Z,100681.28
2023-05-10T17:04:11.665Z,100680.47
2023-05-10T17:06:42.587Z,100680.38
2023-05-10T17:09:09.548Z,100681.56
2023-05-10T17:11:37.655Z,100683.50
2023-05-10T17:14:04.612Z,100679.00
2023-05-10T17:16:31.639Z,100683.56
2023-05-10T17:18:59.798Z,100680.09
2023-05-10T17:21:28.832Z,100686.41
2023-05-10T17:24:03.711Z,100688.84
2023-05-10T17:26:31.002Z,100685.91
2023-05-10T17:28:58.268Z,100679.25
2023-05-10T17:31:28.120Z,100686.28
2023-05-10T17:33:55.127Z,100681.19
2023-05-10T17:36:23.459Z,100680.22
2023-05-10T17:38:50.862Z,100680.59
2023-05-10T17:41:23.836Z,100688.00
2023-05-10T17:43:51.080Z,100680.94
2023-05-10T17:46:21.493Z,100690.94
2023-05-10T17:48:55.598Z,100691.59
2023-05-10T17:51:35.686Z,100685.41
2023-05-10T17:54:06.987Z,100689.25
2023-05-10T17:56:42.629Z,100687.47
2023-05-10T17:59:23.023Z,100683.09
2023-05-10T18:01:51.366Z,100688.69
2023-05-10T18:04:28.653Z,100682.50
2023-05-10T18:07:01.982Z,100685.47
2023-05-10T18:09:30.503Z,100685.78
2023-05-10T18:12:03.751Z,100692.03
2023-05-10T18:14:40.491Z,100692.34
2023-05-10T18:17:31.766Z,100694.25
2023-05-10T18:20:04.643Z,100693.22
2023-05-10T18:22:34.677Z,100700.34
2023-05-10T18:25:04.968Z,100700.06
2023-05-10T18:27:39.478Z,100698.69
2023-05-10T18:30:12.899Z,100699.78
2023-05-10T18:32:52.739Z,100696.13
2023-05-10T18:35:45.100Z,100701.34
2023-05-10T18:38:15.113Z,100701.75
2023-05-10T18:40:42.121Z,100701.72
2023-05-10T18:43:17.110Z,100701.28
2023-05-10T18:45:56.506Z,100696.84
2023-05-10T18:48:32.695Z,100699.13
2023-05-10T18:51:00.215Z,100705.19
2023-05-10T18:53:47.264Z,100704.66
2023-05-10T18:56:28.235Z,100701.00
2023-05-10T18:59:03.944Z,100709.59
2023-05-10T19:01:32.389Z,100716.56
2023-05-10T19:04:01.444Z,100708.69
2023-05-10T19:06:37.895Z,100709.56
2023-05-10T19:09:10.221Z,100702.84
2023-05-10T19:11:40.537Z,100699.34
2023-05-10T19:14:14.127Z,100712.47
2023-05-10T19:16:45.676Z,100707.78
2023-05-10T19:19:20.692Z,100701.75
2023-05-10T19:21:49.092Z,100703.91
2023-05-10T19:24:26.132Z,100699.13
2023-05-10T19:26:58.206Z,100699.38
2023-05-10T19:29:30.715Z,100701.66
2023-05-10T19:32:15.088Z,100706.94
2023-05-10T19:34:50.983Z,100704.16
2023-05-10T19:37:18.554Z,100712.22
2023-05-10T19:39:51.735Z,100702.75
2023-05-10T19:42:27.228Z,100708.13
2023-05-10T19:45:06.532Z,100707.78
2023-05-10T19:50:20.181Z,100706.16
2023-05-10T19:52:59.102Z,100708.09
2023-05-10T19:55:30.998Z,100712.00
2023-05-10T19:58:01.501Z,100706.91
2023-05-10T20:00:29.085Z,100703.22
2023-05-10T20:03:09.138Z,100709.47
2023-05-10T20:05:38.036Z,100707.25
2023-05-10T20:08:17.411Z,100704.72
2023-05-10T20:10:44.900Z,100707.06
2023-05-10T20:13:12.192Z,100707.53
2023-05-10T20:15:39.237Z,100703.97
2023-05-10T20:18:09.430Z,100707.03
2023-05-10T20:20:42.819Z,100707.41
2023-05-10T20:23:10.847Z,100708.19
2023-05-10T20:25:41.832Z,100702.22
2023-05-10T20:28:14.309Z,100704.41
2023-05-10T20:30:44.920Z,100690.44
2023-05-10T20:33:12.019Z,100695.94
2023-05-10T20:35:39.981Z,100705.41
2023-05-10T20:38:08.281Z,100699.03
2023-05-10T20:40:43.763Z,100701.75
2023-05-10T20:43:12.823Z,100692.59
2023-05-10T20:45:41.189Z,100694.31
2023-05-10T20:48:12.873Z,100697.78
2023-05-10T20:50:48.489Z,100696.69
2023-05-10T20:53:23.354Z,100689.63
2023-05-10T20:55:51.386Z,100694.66
2023-05-10T20:58:20.054Z,100695.69
2023-05-10T21:00:52.283Z,100700.78
2023-05-10T21:03:22.183Z,100698.13
2023-05-10T21:05:49.242Z,100698.00
2023-05-10T21:08:16.512Z,100693.50
2023-05-10T21:10:43.834Z,100697.47
2023-05-10T21:13:10.955Z,100694.19
2023-05-10T21:15:42.996Z,100695.31
2023-05-10T21:18:21.138Z,100691.72
2023-05-10T21:21:01.331Z,100690.25
2023-05-10T21:23:29.601Z,100692.19
2023-05-10T21:25:56.648Z,100691.00
2023-05-10T21:28:25.445Z,100690.19
2023-05-10T21:30:52.449Z,100691.44
2023-05-10T21:33:19.404Z,100689.50
2023-05-10T21:35:46.413Z,100677.53
2023-05-10T21:38:13.526Z,100693.81
2023-05-10T21:40:40.759Z,100682.66
2023-05-10T21:43:08.797Z,100683.94
2023-05-10T21:45:36.831Z,100678.81
2023-05-10T21:48:06.923Z,100683.97
2023-05-10T21:50:37.961Z,100685.91
2023-05-10T21:53:05.525Z,100688.16
2023-05-10T21:55:40.067Z,100685.34
2023-05-10T21:58:07.789Z,100684.75
2023-05-10T22:00:35.986Z,100678.53
2023-05-10T22:03:03.118Z,100683.63
2023-05-10T22:05:34.163Z,100685.06
2023-05-10T22:08:01.931Z,100690.34
2023-05-10T22:10:36.881Z,100691.44
2023-05-10T22:13:06.871Z,100688.28
2023-05-10T22:15:36.299Z,100687.19
2023-05-10T22:18:03.676Z,100691.25
2023-05-10T22:20:30.788Z,100695.97
2023-05-10T22:22:57.762Z,100695.91
2023-05-10T22:25:28.214Z,100689.69
2023-05-10T22:27:58.226Z,100684.88
2023-05-10T22:30:27.716Z,100682.31
2023-05-10T22:32:54.712Z,100682.38
2023-05-10T22:35:23.163Z,100682.59
2023-05-10T22:37:52.934Z,100683.97
2023-05-10T22:40:24.103Z,100682.84
2023-05-10T22:42:51.212Z,100688.09
2023-05-10T22:45:19.413Z,100685.81
2023-05-10T22:47:47.587Z,100688.31
2023-05-10T22:50:18.220Z,100698.91
2023-05-10T22:52:48.250Z,100690.56
2023-05-10T22:55:15.347Z,100692.19
2023-05-10T22:57:46.084Z,100696.19
2023-05-10T23:00:13.819Z,100693.72
2023-05-10T23:02:46.568Z,100693.84
2023-05-10T23:05:19.546Z,100702.75
2023-05-10T23:07:59.217Z,100702.97
2023-05-10T23:10:35.212Z,100696.38
2023-05-10T23:13:03.115Z,100698.63
2023-05-10T23:15:35.907Z,100698.19
2023-05-10T23:18:06.120Z,100694.50
2023-05-10T23:20:33.413Z,100699.13
2023-05-10T23:23:01.028Z,100695.34
2023-05-10T23:25:28.194Z,100699.94
2023-05-10T23:27:57.356Z,100698.22
2023-05-10T23:30:36.648Z,100695.41
2023-05-10T23:33:05.082Z,100695.59
2023-05-10T23:35:36.068Z,100693.81
2023-05-10T23:38:05.540Z,100698.69
2023-05-10T23:40:32.547Z,100690.25
2023-05-10T23:43:02.376Z,100693.91
2023-05-10T23:45:29.376Z,100684.25
2023-05-10T23:48:02.425Z,100684.13
2023-05-10T23:50:31.132Z,100690.03
2023-05-10T23:52:58.043Z,100684.41
2023-05-10T23:55:27.784Z,100685.66
2023-05-10T23:57:59.078Z,100682.31
